Arendal — 3EWV4 — position and weather

sailwx.info

Track history (hours):
 
Tides and Currents Weather Stations Pressure Air Temp Water Temp Dewpoint Dewpoint Depression Visibility Wind Speed Wind Dir Waves Ship Positions

Arendal

Last reported at 2018-May-15 19:59 UTC. Time now 2018-Jun-19 23:43 UTC.
Position N 01°34' E 104°36'.
Warning: this ship's position is 35 days out of date.

Length 183 m; draft 10.7 m.

Type: Ship. MMSI: 370297000.

Date/timePositionNaut miles runAvg speedWind from/ knotsBaromVisibWave heightAir tempDewpointWater temp
2018-May-15 19:59N 01°34' E 104°36'714.7
2018-May-15 19:29N 01°28' E 104°32'814.6
2018-May-15 18:57N 01°23' E 104°26'715.4
2018-May-15 18:31N 01°18' E 104°21'814.8
2018-May-15 18:00N 01°16' E 104°14'714.2
2018-May-15 17:30N 01°15' E 104°07'714.3
2018-May-15 17:00N 01°14' E 103°59'713.1
2018-May-15 16:30N 01°13' E 103°53'4 8.5
2018-May-15 16:00N 01°12' E 103°49'2 4.5
2018-May-15 15:31N 01°14' E 103°48'0 0.5
2018-May-15 14:57N 01°14' E 103°48'0 0.0
2018-May-15 14:28N 01°14' E 103°48'0 0.1
2018-May-15 14:00N 01°14' E 103°48'0 0.0
2018-May-15 13:27N 01°14' E 103°48'0 0.0
2018-May-15 13:00N 01°14' E 103°48'0 0.0
2018-May-15 12:30N 01°14' E 103°48'0 0.0
2018-May-15 11:58N 01°14' E 103°48'0 0.0
2018-May-15 11:30N 01°14' E 103°48'0 0.0
2018-May-15 10:57N 01°14' E 103°48'0 0.0
2018-May-15 10:30N 01°14' E 103°48'0 0.0
2018-May-15 09:57N 01°14' E 103°48'0 0.1
2018-May-15 09:27N 01°14' E 103°48'0 0.1
2018-May-15 08:57N 01°14' E 103°48'0 0.0
2018-May-15 08:30N 01°14' E 103°48'0 0.0
2018-May-15 07:57N 01°14' E 103°48'0 0.1
2018-May-15 07:27N 01°14' E 103°48'0 0.0
2018-May-15 07:00N 01°14' E 103°48'0 0.1
2018-May-15 06:30N 01°14' E 103°48'0 0.1
2018-May-15 05:57N 01°14' E 103°48'0 0.0
2018-May-15 05:30N 01°14' E 103°48'0 0.0
2018-May-15 04:57N 01°14' E 103°48'0 0.1
2018-May-15 04:27N 01°14' E 103°48'0 0.0
2018-May-15 04:00N 01°14' E 103°48'0 0.1
2018-May-15 03:27N 01°14' E 103°48'0 0.1
2018-May-15 02:58N 01°14' E 103°48'0 0.0
2018-May-15 02:30N 01°14' E 103°48'0 0.1
2018-May-15 01:58N 01°14' E 103°48'1 2.9
2018-May-15 01:30N 01°15' E 103°47'4 8.7
2018-May-15 01:00N 01°14' E 103°42'5 9.4
2018-May-15 00:30N 01°12' E 103°38'4 8.2
2018-May-14 23:59N 01°12' E 103°34'3 7.1
2018-May-14 23:30N 01°10' E 103°31'0 0.6
2018-May-14 23:00N 01°10' E 103°31'4 8.1
2018-May-14 22:30N 01°11' E 103°27'611.8
2018-May-14 21:59N 01°14' E 103°22'612.1
2018-May-14 21:30N 01°18' E 103°17'611.9
2018-May-14 20:59N 01°22' E 103°13'611.6
2018-May-14 20:30N 01°25' E 103°08'  
2018-May-07 13:48N 17°12' E 072°07'513.5
2018-May-07 13:26N 17°15' E 072°03'713.5
2018-May-07 12:56N 17°18' E 071°57'613.8
2018-May-07 12:30N 17°22' E 071°52'713.9
2018-May-07 12:00N 17°26' E 071°46'1913.8
2018-May-07 10:38N 17°37' E 071°30'513.8
2018-May-07 10:17N 17°40' E 071°26'413.6
2018-May-07 09:59N 17°42' E 071°23'913.8
2018-May-07 09:22N 17°47' E 071°15'3213.6
2018-May-07 07:02N 18°07' E 070°49'113.2
2018-May-07 06:59N 18°07' E 070°49'613.3
2018-May-07 06:30N 18°13' E 070°45'713.4
2018-May-07 06:00N 18°18' E 070°41'713.5
2018-May-07 05:30N 18°24' E 070°37'713.7
2018-May-07 05:00N 18°30' E 070°33'1413.5
2018-May-07 03:56N 18°42' E 070°25'613.4
2018-May-07 03:30N 18°47' E 070°22'813.6
2018-May-07 02:57N 18°53' E 070°17'613.7
2018-May-07 02:31N 18°58' E 070°14'713.8
2018-May-07 02:00N 19°04' E 070°10'714.0
2018-May-07 01:30N 19°09' E 070°05'814.0
2018-May-07 00:58N 19°16' E 070°01'613.8
2018-May-07 00:30N 19°21' E 069°57'713.6
2018-May-07 00:00N 19°27' E 069°53'713.7
2018-May-06 23:30N 19°33' E 069°49'713.8
2018-May-06 22:59N 19°38' E 069°45'713.5
2018-May-06 22:30N 19°44' E 069°42'713.9
2018-May-06 21:59N 19°50' E 069°37'713.7
2018-May-06 21:30N 19°55' E 069°33'713.7
2018-May-06 21:00N 20°01' E 069°29'713.8
2018-May-06 20:31N 20°07' E 069°25'713.7
2018-May-06 19:59N 20°13' E 069°21'613.7
2018-May-06 19:31N 20°18' E 069°17'713.4
2018-May-06 19:00N 20°24' E 069°13'713.3
2018-May-06 18:30N 20°30' E 069°10'713.4
2018-May-06 17:59N 20°35' E 069°05'713.4
2018-May-06 17:28N 20°41' E 069°01'613.3
2018-May-06 17:00N 20°46' E 068°58'17013.5
2018-May-06 04:23N 23°10' E 067°20'7712.9
2018-May-05 22:26N 24°24' E 066°55'  
Track history (hours):
 
Tides and Currents Weather Stations Pressure Air Temp Water Temp Dewpoint Dewpoint Depression Visibility Wind Speed Wind Dir Waves Ship Positions

Arendal

Last reported at 2018-May-15 19:59 UTC. Time now 2018-Jun-19 23:43 UTC.
Position N 01°34' E 104°36'.
Warning: this ship's position is 35 days out of date.

Length 183 m; draft 10.7 m.

Type: Ship. MMSI: 370297000.

Date/timePositionNaut miles runAvg speedWind from/ knotsBaromVisibWave heightAir tempDewpointWater temp
2018-May-15 19:59N 01°34' E 104°36'714.7
2018-May-15 19:29N 01°28' E 104°32'814.6
2018-May-15 18:57N 01°23' E 104°26'715.4
2018-May-15 18:31N 01°18' E 104°21'814.8
2018-May-15 18:00N 01°16' E 104°14'714.2
2018-May-15 17:30N 01°15' E 104°07'714.3
2018-May-15 17:00N 01°14' E 103°59'713.1
2018-May-15 16:30N 01°13' E 103°53'4 8.5
2018-May-15 16:00N 01°12' E 103°49'2 4.5
2018-May-15 15:31N 01°14' E 103°48'0 0.5
2018-May-15 14:57N 01°14' E 103°48'0 0.0
2018-May-15 14:28N 01°14' E 103°48'0 0.1
2018-May-15 14:00N 01°14' E 103°48'0 0.0
2018-May-15 13:27N 01°14' E 103°48'0 0.0
2018-May-15 13:00N 01°14' E 103°48'0 0.0
2018-May-15 12:30N 01°14' E 103°48'0 0.0
2018-May-15 11:58N 01°14' E 103°48'0 0.0
2018-May-15 11:30N 01°14' E 103°48'0 0.0
2018-May-15 10:57N 01°14' E 103°48'0 0.0
2018-May-15 10:30N 01°14' E 103°48'0 0.0
2018-May-15 09:57N 01°14' E 103°48'0 0.1
2018-May-15 09:27N 01°14' E 103°48'0 0.1
2018-May-15 08:57N 01°14' E 103°48'0 0.0
2018-May-15 08:30N 01°14' E 103°48'0 0.0
2018-May-15 07:57N 01°14' E 103°48'0 0.1
2018-May-15 07:27N 01°14' E 103°48'0 0.0
2018-May-15 07:00N 01°14' E 103°48'0 0.1
2018-May-15 06:30N 01°14' E 103°48'0 0.1
2018-May-15 05:57N 01°14' E 103°48'0 0.0
2018-May-15 05:30N 01°14' E 103°48'0 0.0
2018-May-15 04:57N 01°14' E 103°48'0 0.1
2018-May-15 04:27N 01°14' E 103°48'0 0.0
2018-May-15 04:00N 01°14' E 103°48'0 0.1
2018-May-15 03:27N 01°14' E 103°48'0 0.1
2018-May-15 02:58N 01°14' E 103°48'0 0.0
2018-May-15 02:30N 01°14' E 103°48'0 0.1
2018-May-15 01:58N 01°14' E 103°48'1 2.9
2018-May-15 01:30N 01°15' E 103°47'4 8.7
2018-May-15 01:00N 01°14' E 103°42'5 9.4
2018-May-15 00:30N 01°12' E 103°38'4 8.2
2018-May-14 23:59N 01°12' E 103°34'3 7.1
2018-May-14 23:30N 01°10' E 103°31'0 0.6
2018-May-14 23:00N 01°10' E 103°31'4 8.1
2018-May-14 22:30N 01°11' E 103°27'611.8
2018-May-14 21:59N 01°14' E 103°22'612.1
2018-May-14 21:30N 01°18' E 103°17'611.9
2018-May-14 20:59N 01°22' E 103°13'611.6
2018-May-14 20:30N 01°25' E 103°08'  
2018-May-07 13:48N 17°12' E 072°07'513.5
2018-May-07 13:26N 17°15' E 072°03'713.5
2018-May-07 12:56N 17°18' E 071°57'613.8
2018-May-07 12:30N 17°22' E 071°52'713.9
2018-May-07 12:00N 17°26' E 071°46'1913.8
2018-May-07 10:38N 17°37' E 071°30'513.8
2018-May-07 10:17N 17°40' E 071°26'413.6
2018-May-07 09:59N 17°42' E 071°23'913.8
2018-May-07 09:22N 17°47' E 071°15'3213.6
2018-May-07 07:02N 18°07' E 070°49'113.2
2018-May-07 06:59N 18°07' E 070°49'613.3
2018-May-07 06:30N 18°13' E 070°45'713.4
2018-May-07 06:00N 18°18' E 070°41'713.5
2018-May-07 05:30N 18°24' E 070°37'713.7
2018-May-07 05:00N 18°30' E 070°33'1413.5
2018-May-07 03:56N 18°42' E 070°25'613.4
2018-May-07 03:30N 18°47' E 070°22'813.6
2018-May-07 02:57N 18°53' E 070°17'613.7
2018-May-07 02:31N 18°58' E 070°14'713.8
2018-May-07 02:00N 19°04' E 070°10'714.0
2018-May-07 01:30N 19°09' E 070°05'814.0
2018-May-07 00:58N 19°16' E 070°01'613.8
2018-May-07 00:30N 19°21' E 069°57'713.6
2018-May-07 00:00N 19°27' E 069°53'713.7
2018-May-06 23:30N 19°33' E 069°49'713.8
2018-May-06 22:59N 19°38' E 069°45'713.5
2018-May-06 22:30N 19°44' E 069°42'713.9
2018-May-06 21:59N 19°50' E 069°37'713.7
2018-May-06 21:30N 19°55' E 069°33'713.7
2018-May-06 21:00N 20°01' E 069°29'713.8
2018-May-06 20:31N 20°07' E 069°25'713.7
2018-May-06 19:59N 20°13' E 069°21'613.7
2018-May-06 19:31N 20°18' E 069°17'713.4
2018-May-06 19:00N 20°24' E 069°13'713.3
2018-May-06 18:30N 20°30' E 069°10'713.4
2018-May-06 17:59N 20°35' E 069°05'713.4
2018-May-06 17:28N 20°41' E 069°01'613.3
2018-May-06 17:00N 20°46' E 068°58'17013.5
2018-May-06 04:23N 23°10' E 067°20'7712.9
2018-May-05 22:26N 24°24' E 066°55'  

Dump ship's entire track history